sensor_id;sensor_type;location;lat;lon;timestamp;P1;durP1;ratioP1;P2;durP2;ratioP2
30505;SDS011;17292;51.600;4.994;2023-05-27T00:00:06;11.48;;;4.07;;
30505;SDS011;17292;51.600;4.994;2023-05-27T00:02:33;11.65;;;4.10;;
30505;SDS011;17292;51.600;4.994;2023-05-27T00:04:59;9.73;;;4.10;;
30505;SDS011;17292;51.600;4.994;2023-05-27T00:07:26;12.85;;;4.15;;
30505;SDS011;17292;51.600;4.994;2023-05-27T00:09:53;10.70;;;3.92;;
30505;SDS011;17292;51.600;4.994;2023-05-27T00:12:19;10.85;;;4.38;;
30505;SDS011;17292;51.600;4.994;2023-05-27T00:14:45;16.83;;;4.15;;
30505;SDS011;17292;51.600;4.994;2023-05-27T00:17:11;10.10;;;3.75;;
30505;SDS011;17292;51.600;4.994;2023-05-27T00:19:42;15.40;;;4.50;;
30505;SDS011;17292;51.600;4.994;2023-05-27T00:22:09;11.13;;;4.22;;
30505;SDS011;17292;51.600;4.994;2023-05-27T00:24:36;12.15;;;4.05;;
30505;SDS011;17292;51.600;4.994;2023-05-27T00:27:07;10.48;;;4.50;;
30505;SDS011;17292;51.600;4.994;2023-05-27T00:29:34;15.95;;;4.50;;
30505;SDS011;17292;51.600;4.994;2023-05-27T00:32:01;11.38;;;3.97;;
30505;SDS011;17292;51.600;4.994;2023-05-27T00:34:33;11.70;;;4.38;;
30505;SDS011;17292;51.600;4.994;2023-05-27T00:36:59;11.15;;;4.25;;
30505;SDS011;17292;51.600;4.994;2023-05-27T00:39:26;11.60;;;3.80;;
30505;SDS011;17292;51.600;4.994;2023-05-27T00:41:52;9.10;;;3.65;;
30505;SDS011;17292;51.600;4.994;2023-05-27T00:44:18;10.60;;;4.00;;
30505;SDS011;17292;51.600;4.994;2023-05-27T00:46:45;10.68;;;4.00;;
30505;SDS011;17292;51.600;4.994;2023-05-27T00:49:12;8.35;;;3.40;;
30505;SDS011;17292;51.600;4.994;2023-05-27T00:51:38;12.65;;;4.43;;
30505;SDS011;17292;51.600;4.994;2023-05-27T00:54:06;7.65;;;3.50;;
30505;SDS011;17292;51.600;4.994;2023-05-27T00:56:32;15.05;;;4.20;;
30505;SDS011;17292;51.600;4.994;2023-05-27T00:58:59;8.73;;;3.90;;
30505;SDS011;17292;51.600;4.994;2023-05-27T01:01:25;7.13;;;3.88;;
30505;SDS011;17292;51.600;4.994;2023-05-27T01:03:51;15.63;;;4.35;;
30505;SDS011;17292;51.600;4.994;2023-05-27T01:06:35;9.25;;;3.60;;
30505;SDS011;17292;51.600;4.994;2023-05-27T01:11:34;8.57;;;3.90;;
30505;SDS011;17292;51.600;4.994;2023-05-27T01:14:04;12.80;;;4.05;;
30505;SDS011;17292;51.600;4.994;2023-05-27T01:16:33;7.22;;;3.40;;
30505;SDS011;17292;51.600;4.994;2023-05-27T01:19:02;11.10;;;4.15;;
30505;SDS011;17292;51.600;4.994;2023-05-27T01:21:30;10.52;;;4.13;;
30505;SDS011;17292;51.600;4.994;2023-05-27T01:24:02;12.05;;;3.65;;
30505;SDS011;17292;51.600;4.994;2023-05-27T01:26:28;12.45;;;3.90;;
30505;SDS011;17292;51.600;4.994;2023-05-27T01:28:54;9.88;;;4.25;;
30505;SDS011;17292;51.600;4.994;2023-05-27T01:31:56;12.75;;;4.00;;
30505;SDS011;17292;51.600;4.994;2023-05-27T01:36:47;10.02;;;3.40;;
30505;SDS011;17292;51.600;4.994;2023-05-27T01:39:14;10.75;;;3.97;;
30505;SDS011;17292;51.600;4.994;2023-05-27T01:41:41;10.18;;;3.55;;
30505;SDS011;17292;51.600;4.994;2023-05-27T01:44:08;7.57;;;3.67;;
30505;SDS011;17292;51.600;4.994;2023-05-27T01:46:35;9.32;;;3.30;;
30505;SDS011;17292;51.600;4.994;2023-05-27T01:49:02;11.68;;;3.90;;
30505;SDS011;17292;51.600;4.994;2023-05-27T01:51:28;9.57;;;3.58;;
30505;SDS011;17292;51.600;4.994;2023-05-27T01:53:54;7.50;;;3.65;;
30505;SDS011;17292;51.600;4.994;2023-05-27T01:56:20;9.65;;;4.07;;
30505;SDS011;17292;51.600;4.994;2023-05-27T01:58:47;11.25;;;3.95;;
30505;SDS011;17292;51.600;4.994;2023-05-27T02:01:13;9.65;;;3.92;;
30505;SDS011;17292;51.600;4.994;2023-05-27T02:03:39;10.80;;;3.72;;
30505;SDS011;17292;51.600;4.994;2023-05-27T02:06:06;12.43;;;4.00;;
30505;SDS011;17292;51.600;4.994;2023-05-27T02:08:32;9.65;;;3.55;;
30505;SDS011;17292;51.600;4.994;2023-05-27T02:10:59;11.43;;;3.60;;
30505;SDS011;17292;51.600;4.994;2023-05-27T02:13:25;8.93;;;3.60;;
30505;SDS011;17292;51.600;4.994;2023-05-27T02:15:51;10.80;;;4.00;;
30505;SDS011;17292;51.600;4.994;2023-05-27T02:18:17;9.52;;;3.67;;
30505;SDS011;17292;51.600;4.994;2023-05-27T02:20:46;9.73;;;3.53;;
30505;SDS011;17292;51.600;4.994;2023-05-27T02:23:12;10.57;;;3.65;;
30505;SDS011;17292;51.600;4.994;2023-05-27T02:25:38;13.40;;;3.75;;
30505;SDS011;17292;51.600;4.994;2023-05-27T02:28:04;8.95;;;3.50;;
30505;SDS011;17292;51.600;4.994;2023-05-27T02:30:30;8.05;;;3.13;;
30505;SDS011;17292;51.600;4.994;2023-05-27T02:32:57;10.30;;;3.80;;
30505;SDS011;17292;51.600;4.994;2023-05-27T02:35:23;10.80;;;3.38;;
30505;SDS011;17292;51.600;4.994;2023-05-27T02:37:49;8.63;;;3.25;;
30505;SDS011;17292;51.600;4.994;2023-05-27T02:40:25;6.50;;;3.35;;
30505;SDS011;17292;51.600;4.994;2023-05-27T02:42:52;10.20;;;3.63;;
30505;SDS011;17292;51.600;4.994;2023-05-27T02:45:18;9.13;;;3.55;;
30505;SDS011;17292;51.600;4.994;2023-05-27T02:47:44;8.70;;;3.50;;
30505;SDS011;17292;51.600;4.994;2023-05-27T02:50:10;11.23;;;4.25;;
30505;SDS011;17292;51.600;4.994;2023-05-27T02:52:37;7.75;;;3.50;;
30505;SDS011;17292;51.600;4.994;2023-05-27T02:55:03;8.82;;;3.25;;
30505;SDS011;17292;51.600;4.994;2023-05-27T02:57:29;7.80;;;3.53;;
30505;SDS011;17292;51.600;4.994;2023-05-27T02:59:55;7.10;;;3.30;;
30505;SDS011;17292;51.600;4.994;2023-05-27T03:02:22;8.45;;;4.05;;
30505;SDS011;17292;51.600;4.994;2023-05-27T03:04:48;8.82;;;3.67;;
30505;SDS011;17292;51.600;4.994;2023-05-27T03:07:14;9.45;;;3.63;;
30505;SDS011;17292;51.600;4.994;2023-05-27T03:09:40;8.02;;;3.22;;
30505;SDS011;17292;51.600;4.994;2023-05-27T03:12:07;9.85;;;3.38;;
30505;SDS011;17292;51.600;4.994;2023-05-27T03:14:33;8.95;;;3.20;;
30505;SDS011;17292;51.600;4.994;2023-05-27T03:16:59;8.48;;;3.60;;
30505;SDS011;17292;51.600;4.994;2023-05-27T03:19:25;10.40;;;3.92;;
30505;SDS011;17292;51.600;4.994;2023-05-27T03:21:51;11.07;;;3.80;;
30505;SDS011;17292;51.600;4.994;2023-05-27T03:24:17;7.47;;;3.80;;
30505;SDS011;17292;51.600;4.994;2023-05-27T03:26:43;11.43;;;4.15;;
30505;SDS011;17292;51.600;4.994;2023-05-27T03:29:10;8.43;;;3.28;;
30505;SDS011;17292;51.600;4.994;2023-05-27T03:31:36;6.07;;;3.05;;
30505;SDS011;17292;51.600;4.994;2023-05-27T03:34:02;7.55;;;3.45;;
30505;SDS011;17292;51.600;4.994;2023-05-27T03:36:28;9.77;;;3.55;;
30505;SDS011;17292;51.600;4.994;2023-05-27T03:38:55;5.90;;;3.05;;
30505;SDS011;17292;51.600;4.994;2023-05-27T03:41:21;9.00;;;3.20;;
30505;SDS011;17292;51.600;4.994;2023-05-27T03:43:47;6.90;;;3.47;;
30505;SDS011;17292;51.600;4.994;2023-05-27T03:46:13;9.50;;;3.55;;
30505;SDS011;17292;51.600;4.994;2023-05-27T03:48:40;10.27;;;3.80;;
30505;SDS011;17292;51.600;4.994;2023-05-27T03:51:06;9.20;;;3.35;;
30505;SDS011;17292;51.600;4.994;2023-05-27T03:53:32;9.27;;;3.55;;
30505;SDS011;17292;51.600;4.994;2023-05-27T03:55:58;9.75;;;3.72;;
30505;SDS011;17292;51.600;4.994;2023-05-27T03:58:24;7.35;;;3.35;;
30505;SDS011;17292;51.600;4.994;2023-05-27T04:00:51;6.68;;;3.20;;
30505;SDS011;17292;51.600;4.994;2023-05-27T04:03:18;9.25;;;3.40;;
30505;SDS011;17292;51.600;4.994;2023-05-27T04:05:44;8.82;;;3.15;;
30505;SDS011;17292;51.600;4.994;2023-05-27T04:08:10;7.80;;;3.20;;
30505;SDS011;17292;51.600;4.994;2023-05-27T04:10:38;6.55;;;3.15;;
30505;SDS011;17292;51.600;4.994;2023-05-27T04:13:04;7.30;;;3.50;;
30505;SDS011;17292;51.600;4.994;2023-05-27T04:15:30;8.68;;;3.10;;
30505;SDS011;17292;51.600;4.994;2023-05-27T04:17:56;6.93;;;3.22;;
30505;SDS011;17292;51.600;4.994;2023-05-27T04:20:23;8.05;;;3.35;;
30505;SDS011;17292;51.600;4.994;2023-05-27T04:22:49;5.90;;;3.10;;
30505;SDS011;17292;51.600;4.994;2023-05-27T04:25:16;9.32;;;3.10;;
30505;SDS011;17292;51.600;4.994;2023-05-27T04:27:42;7.47;;;3.55;;
30505;SDS011;17292;51.600;4.994;2023-05-27T04:30:08;8.27;;;3.08;;
30505;SDS011;17292;51.600;4.994;2023-05-27T04:32:34;8.23;;;3.20;;
30505;SDS011;17292;51.600;4.994;2023-05-27T04:35:06;7.30;;;3.30;;
30505;SDS011;17292;51.600;4.994;2023-05-27T04:37:34;8.60;;;3.40;;
30505;SDS011;17292;51.600;4.994;2023-05-27T04:40:04;8.30;;;3.25;;
30505;SDS011;17292;51.600;4.994;2023-05-27T04:42:31;6.43;;;3.03;;
30505;SDS011;17292;51.600;4.994;2023-05-27T04:44:58;6.78;;;3.40;;
30505;SDS011;17292;51.600;4.994;2023-05-27T04:47:25;8.32;;;3.75;;
30505;SDS011;17292;51.600;4.994;2023-05-27T04:49:51;7.72;;;3.50;;
30505;SDS011;17292;51.600;4.994;2023-05-27T04:52:17;8.30;;;3.30;;
30505;SDS011;17292;51.600;4.994;2023-05-27T04:54:46;5.38;;;3.05;;
30505;SDS011;17292;51.600;4.994;2023-05-27T04:57:12;6.68;;;3.35;;
30505;SDS011;17292;51.600;4.994;2023-05-27T04:59:43;7.75;;;3.00;;
30505;SDS011;17292;51.600;4.994;2023-05-27T05:02:28;6.63;;;3.20;;
30505;SDS011;17292;51.600;4.994;2023-05-27T05:05:02;9.10;;;3.40;;
30505;SDS011;17292;51.600;4.994;2023-05-27T05:07:28;6.82;;;2.90;;
30505;SDS011;17292;51.600;4.994;2023-05-27T05:09:55;6.18;;;3.08;;
30505;SDS011;17292;51.600;4.994;2023-05-27T05:12:21;7.78;;;3.42;;
30505;SDS011;17292;51.600;4.994;2023-05-27T05:14:48;7.85;;;3.53;;
30505;SDS011;17292;51.600;4.994;2023-05-27T05:17:14;6.45;;;2.88;;
30505;SDS011;17292;51.600;4.994;2023-05-27T05:19:40;6.75;;;3.15;;
30505;SDS011;17292;51.600;4.994;2023-05-27T05:22:06;5.95;;;2.83;;
30505;SDS011;17292;51.600;4.994;2023-05-27T05:24:32;6.07;;;3.20;;
30505;SDS011;17292;51.600;4.994;2023-05-27T05:26:58;7.72;;;3.30;;
30505;SDS011;17292;51.600;4.994;2023-05-27T05:29:25;7.47;;;3.55;;
30505;SDS011;17292;51.600;4.994;2023-05-27T05:31:51;8.50;;;3.50;;
30505;SDS011;17292;51.600;4.994;2023-05-27T05:34:17;7.45;;;3.20;;
30505;SDS011;17292;51.600;4.994;2023-05-27T05:36:43;4.82;;;3.25;;
30505;SDS011;17292;51.600;4.994;2023-05-27T05:39:09;5.28;;;2.90;;
30505;SDS011;17292;51.600;4.994;2023-05-27T05:41:36;9.25;;;3.40;;
30505;SDS011;17292;51.600;4.994;2023-05-27T05:44:02;4.97;;;2.83;;
30505;SDS011;17292;51.600;4.994;2023-05-27T05:46:28;6.10;;;3.17;;
30505;SDS011;17292;51.600;4.994;2023-05-27T05:48:54;5.15;;;2.78;;
30505;SDS011;17292;51.600;4.994;2023-05-27T05:51:20;6.63;;;3.13;;
30505;SDS011;17292;51.600;4.994;2023-05-27T05:53:46;5.53;;;3.28;;
30505;SDS011;17292;51.600;4.994;2023-05-27T05:56:12;7.03;;;3.00;;
30505;SDS011;17292;51.600;4.994;2023-05-27T05:58:38;8.27;;;3.00;;
30505;SDS011;17292;51.600;4.994;2023-05-27T06:01:05;6.65;;;3.30;;
30505;SDS011;17292;51.600;4.994;2023-05-27T06:03:31;7.63;;;3.17;;
30505;SDS011;17292;51.600;4.994;2023-05-27T06:05:57;6.75;;;3.20;;
30505;SDS011;17292;51.600;4.994;2023-05-27T06:08:23;5.80;;;2.92;;
30505;SDS011;17292;51.600;4.994;2023-05-27T06:10:49;6.65;;;3.33;;
30505;SDS011;17292;51.600;4.994;2023-05-27T06:13:16;6.75;;;2.83;;
30505;SDS011;17292;51.600;4.994;2023-05-27T06:15:42;7.63;;;2.95;;
30505;SDS011;17292;51.600;4.994;2023-05-27T06:18:08;6.68;;;3.13;;
30505;SDS011;17292;51.600;4.994;2023-05-27T06:20:35;8.15;;;3.42;;
30505;SDS011;17292;51.600;4.994;2023-05-27T06:23:01;8.73;;;3.00;;
30505;SDS011;17292;51.600;4.994;2023-05-27T06:25:28;6.13;;;3.00;;
30505;SDS011;17292;51.600;4.994;2023-05-27T06:27:54;6.00;;;2.92;;
30505;SDS011;17292;51.600;4.994;2023-05-27T06:30:20;6.97;;;3.25;;
30505;SDS011;17292;51.600;4.994;2023-05-27T06:32:46;5.97;;;3.30;;
30505;SDS011;17292;51.600;4.994;2023-05-27T06:35:12;8.48;;;3.08;;
30505;SDS011;17292;51.600;4.994;2023-05-27T06:37:38;5.90;;;2.67;;
30505;SDS011;17292;51.600;4.994;2023-05-27T06:40:04;5.57;;;2.85;;
30505;SDS011;17292;51.600;4.994;2023-05-27T06:42:31;5.25;;;3.00;;
30505;SDS011;17292;51.600;4.994;2023-05-27T06:44:57;6.55;;;3.20;;
30505;SDS011;17292;51.600;4.994;2023-05-27T06:47:23;6.57;;;3.20;;
30505;SDS011;17292;51.600;4.994;2023-05-27T06:49:49;6.70;;;3.38;;
30505;SDS011;17292;51.600;4.994;2023-05-27T06:52:15;6.22;;;2.85;;
30505;SDS011;17292;51.600;4.994;2023-05-27T06:54:41;6.95;;;3.22;;
30505;SDS011;17292;51.600;4.994;2023-05-27T06:57:08;6.00;;;3.25;;
30505;SDS011;17292;51.600;4.994;2023-05-27T06:59:34;4.10;;;2.65;;
30505;SDS011;17292;51.600;4.994;2023-05-27T07:02:00;6.75;;;3.20;;
30505;SDS011;17292;51.600;4.994;2023-05-27T07:04:26;6.03;;;3.47;;
30505;SDS011;17292;51.600;4.994;2023-05-27T07:06:52;6.40;;;3.22;;
30505;SDS011;17292;51.600;4.994;2023-05-27T07:09:18;5.00;;;2.75;;
30505;SDS011;17292;51.600;4.994;2023-05-27T07:11:44;5.25;;;2.88;;
30505;SDS011;17292;51.600;4.994;2023-05-27T07:14:11;5.50;;;2.92;;
30505;SDS011;17292;51.600;4.994;2023-05-27T07:16:37;4.72;;;2.65;;
30505;SDS011;17292;51.600;4.994;2023-05-27T07:19:03;6.28;;;3.15;;
30505;SDS011;17292;51.600;4.994;2023-05-27T07:21:30;9.68;;;3.40;;
30505;SDS011;17292;51.600;4.994;2023-05-27T07:23:56;5.95;;;2.70;;
30505;SDS011;17292;51.600;4.994;2023-05-27T07:26:28;8.32;;;3.22;;
30505;SDS011;17292;51.600;4.994;2023-05-27T07:28:54;7.55;;;3.15;;
30505;SDS011;17292;51.600;4.994;2023-05-27T07:31:20;6.22;;;3.40;;
30505;SDS011;17292;51.600;4.994;2023-05-27T07:33:46;5.97;;;2.92;;
30505;SDS011;17292;51.600;4.994;2023-05-27T07:36:12;7.00;;;3.13;;
30505;SDS011;17292;51.600;4.994;2023-05-27T07:38:38;7.07;;;3.22;;
30505;SDS011;17292;51.600;4.994;2023-05-27T07:41:04;8.18;;;3.40;;
30505;SDS011;17292;51.600;4.994;2023-05-27T07:43:30;4.68;;;2.80;;
30505;SDS011;17292;51.600;4.994;2023-05-27T07:45:57;7.95;;;3.25;;
30505;SDS011;17292;51.600;4.994;2023-05-27T07:48:23;5.28;;;3.03;;
30505;SDS011;17292;51.600;4.994;2023-05-27T07:50:49;6.00;;;2.70;;
30505;SDS011;17292;51.600;4.994;2023-05-27T07:53:15;4.75;;;2.50;;
30505;SDS011;17292;51.600;4.994;2023-05-27T07:55:41;7.55;;;3.08;;
30505;SDS011;17292;51.600;4.994;2023-05-27T07:58:07;6.60;;;2.50;;
30505;SDS011;17292;51.600;4.994;2023-05-27T08:00:33;4.75;;;2.95;;
30505;SDS011;17292;51.600;4.994;2023-05-27T08:02:59;4.88;;;2.42;;
30505;SDS011;17292;51.600;4.994;2023-05-27T08:05:26;5.75;;;2.70;;
30505;SDS011;17292;51.600;4.994;2023-05-27T08:07:52;4.55;;;2.42;;
30505;SDS011;17292;51.600;4.994;2023-05-27T08:10:18;5.03;;;2.70;;
30505;SDS011;17292;51.600;4.994;2023-05-27T08:12:44;3.83;;;2.17;;
30505;SDS011;17292;51.600;4.994;2023-05-27T08:15:10;4.45;;;2.70;;
30505;SDS011;17292;51.600;4.994;2023-05-27T08:17:36;5.95;;;2.67;;
30505;SDS011;17292;51.600;4.994;2023-05-27T08:20:03;3.95;;;2.85;;
30505;SDS011;17292;51.600;4.994;2023-05-27T08:22:29;5.00;;;2.58;;
30505;SDS011;17292;51.600;4.994;2023-05-27T08:24:55;3.67;;;2.50;;
30505;SDS011;17292;51.600;4.994;2023-05-27T08:27:41;6.47;;;3.00;;
30505;SDS011;17292;51.600;4.994;2023-05-27T08:30:07;5.10;;;2.60;;
30505;SDS011;17292;51.600;4.994;2023-05-27T08:32:34;4.10;;;2.70;;
30505;SDS011;17292;51.600;4.994;2023-05-27T08:35:00;5.40;;;2.70;;
30505;SDS011;17292;51.600;4.994;2023-05-27T08:37:26;7.30;;;2.78;;
30505;SDS011;17292;51.600;4.994;2023-05-27T08:39:53;4.68;;;2.78;;
30505;SDS011;17292;51.600;4.994;2023-05-27T08:42:20;5.93;;;2.80;;
30505;SDS011;17292;51.600;4.994;2023-05-27T08:44:46;3.75;;;2.40;;
30505;SDS011;17292;51.600;4.994;2023-05-27T08:47:12;5.13;;;2.85;;
30505;SDS011;17292;51.600;4.994;2023-05-27T08:49:39;4.57;;;2.83;;
30505;SDS011;17292;51.600;4.994;2023-05-27T08:52:06;4.28;;;2.55;;
30505;SDS011;17292;51.600;4.994;2023-05-27T08:54:36;5.60;;;2.78;;
30505;SDS011;17292;51.600;4.994;2023-05-27T08:57:03;5.10;;;2.65;;
30505;SDS011;17292;51.600;4.994;2023-05-27T08:59:32;4.55;;;2.78;;
30505;SDS011;17292;51.600;4.994;2023-05-27T09:01:58;5.13;;;2.65;;
30505;SDS011;17292;51.600;4.994;2023-05-27T09:04:25;5.03;;;2.90;;
30505;SDS011;17292;51.600;4.994;2023-05-27T09:06:51;5.25;;;2.92;;
30505;SDS011;17292;51.600;4.994;2023-05-27T09:09:18;4.90;;;2.38;;
30505;SDS011;17292;51.600;4.994;2023-05-27T09:11:44;5.25;;;2.78;;
30505;SDS011;17292;51.600;4.994;2023-05-27T09:14:20;4.68;;;2.83;;
30505;SDS011;17292;51.600;4.994;2023-05-27T09:16:46;4.93;;;2.63;;
30505;SDS011;17292;51.600;4.994;2023-05-27T09:19:16;5.03;;;2.65;;
30505;SDS011;17292;51.600;4.994;2023-05-27T09:21:42;4.97;;;2.65;;
30505;SDS011;17292;51.600;4.994;2023-05-27T09:24:10;4.43;;;2.80;;
30505;SDS011;17292;51.600;4.994;2023-05-27T09:26:36;4.13;;;2.47;;
30505;SDS011;17292;51.600;4.994;2023-05-27T09:29:06;5.32;;;2.92;;
30505;SDS011;17292;51.600;4.994;2023-05-27T09:31:41;4.97;;;2.78;;
30505;SDS011;17292;51.600;4.994;2023-05-27T09:34:17;7.80;;;3.10;;
30505;SDS011;17292;51.600;4.994;2023-05-27T09:36:43;3.38;;;2.40;;
30505;SDS011;17292;51.600;4.994;2023-05-27T09:39:10;4.50;;;2.60;;
30505;SDS011;17292;51.600;4.994;2023-05-27T09:41:40;3.75;;;2.60;;
30505;SDS011;17292;51.600;4.994;2023-05-27T09:44:06;4.30;;;2.65;;
30505;SDS011;17292;51.600;4.994;2023-05-27T09:46:33;5.53;;;2.47;;
30505;SDS011;17292;51.600;4.994;2023-05-27T09:48:59;4.22;;;2.70;;
30505;SDS011;17292;51.600;4.994;2023-05-27T09:51:26;3.85;;;2.30;;
30505;SDS011;17292;51.600;4.994;2023-05-27T09:53:55;7.70;;;3.10;;
30505;SDS011;17292;51.600;4.994;2023-05-27T09:56:25;3.75;;;2.72;;
30505;SDS011;17292;51.600;4.994;2023-05-27T09:58:54;4.75;;;2.83;;
30505;SDS011;17292;51.600;4.994;2023-05-27T10:01:27;5.00;;;2.67;;
30505;SDS011;17292;51.600;4.994;2023-05-27T10:03:54;5.20;;;2.75;;
30505;SDS011;17292;51.600;4.994;2023-05-27T10:06:23;5.18;;;2.65;;
30505;SDS011;17292;51.600;4.994;2023-05-27T10:08:51;4.60;;;2.85;;
30505;SDS011;17292;51.600;4.994;2023-05-27T10:11:24;5.35;;;2.70;;
30505;SDS011;17292;51.600;4.994;2023-05-27T10:13:51;4.97;;;2.65;;
30505;SDS011;17292;51.600;4.994;2023-05-27T10:16:18;4.63;;;2.70;;
30505;SDS011;17292;51.600;4.994;2023-05-27T10:18:45;3.80;;;2.67;;
30505;SDS011;17292;51.600;4.994;2023-05-27T10:21:20;5.57;;;2.88;;
30505;SDS011;17292;51.600;4.994;2023-05-27T10:29:14;6.57;;;3.13;;
30505;SDS011;17292;51.600;4.994;2023-05-27T10:31:47;4.50;;;2.55;;
30505;SDS011;17292;51.600;4.994;2023-05-27T10:34:14;6.35;;;2.83;;
30505;SDS011;17292;51.600;4.994;2023-05-27T10:36:40;4.90;;;2.58;;
30505;SDS011;17292;51.600;4.994;2023-05-27T10:39:16;5.00;;;2.45;;
30505;SDS011;17292;51.600;4.994;2023-05-27T10:44:25;5.60;;;2.30;;
30505;SDS011;17292;51.600;4.994;2023-05-27T10:46:58;4.55;;;2.60;;
30505;SDS011;17292;51.600;4.994;2023-05-27T10:49:25;5.05;;;2.90;;
30505;SDS011;17292;51.600;4.994;2023-05-27T10:52:09;3.53;;;2.40;;
30505;SDS011;17292;51.600;4.994;2023-05-27T10:54:38;4.20;;;2.45;;
30505;SDS011;17292;51.600;4.994;2023-05-27T10:57:04;5.40;;;2.72;;
30505;SDS011;17292;51.600;4.994;2023-05-27T10:59:51;4.53;;;2.85;;
30505;SDS011;17292;51.600;4.994;2023-05-27T11:02:23;5.55;;;2.78;;
30505;SDS011;17292;51.600;4.994;2023-05-27T11:04:49;3.20;;;2.33;;
30505;SDS011;17292;51.600;4.994;2023-05-27T11:07:19;4.95;;;2.40;;
30505;SDS011;17292;51.600;4.994;2023-05-27T11:09:46;3.72;;;2.10;;
30505;SDS011;17292;51.600;4.994;2023-05-27T11:12:13;4.60;;;2.63;;
30505;SDS011;17292;51.600;4.994;2023-05-27T11:14:42;6.03;;;2.85;;
30505;SDS011;17292;51.600;4.994;2023-05-27T11:17:17;4.18;;;2.95;;
30505;SDS011;17292;51.600;4.994;2023-05-27T11:19:43;5.43;;;2.58;;
30505;SDS011;17292;51.600;4.994;2023-05-27T11:22:14;4.65;;;2.70;;
30505;SDS011;17292;51.600;4.994;2023-05-27T11:24:41;6.85;;;2.88;;
30505;SDS011;17292;51.600;4.994;2023-05-27T11:27:11;6.88;;;2.78;;
30505;SDS011;17292;51.600;4.994;2023-05-27T11:29:37;4.57;;;2.92;;
30505;SDS011;17292;51.600;4.994;2023-05-27T11:32:04;5.28;;;2.88;;
30505;SDS011;17292;51.600;4.994;2023-05-27T11:34:30;5.40;;;2.75;;
30505;SDS011;17292;51.600;4.994;2023-05-27T11:37:01;4.13;;;2.58;;
30505;SDS011;17292;51.600;4.994;2023-05-27T11:39:31;3.88;;;2.30;;
30505;SDS011;17292;51.600;4.994;2023-05-27T11:41:57;4.28;;;2.65;;
30505;SDS011;17292;51.600;4.994;2023-05-27T11:44:24;5.70;;;3.22;;
30505;SDS011;17292;51.600;4.994;2023-05-27T11:46:52;4.00;;;2.22;;
30505;SDS011;17292;51.600;4.994;2023-05-27T11:49:27;4.82;;;2.78;;
30505;SDS011;17292;51.600;4.994;2023-05-27T11:51:57;4.70;;;2.85;;
30505;SDS011;17292;51.600;4.994;2023-05-27T11:54:28;3.72;;;2.25;;
30505;SDS011;17292;51.600;4.994;2023-05-27T11:56:54;5.30;;;2.65;;
30505;SDS011;17292;51.600;4.994;2023-05-27T11:59:21;4.50;;;2.28;;
30505;SDS011;17292;51.600;4.994;2023-05-27T12:01:48;5.38;;;3.13;;
30505;SDS011;17292;51.600;4.994;2023-05-27T12:04:16;3.00;;;2.40;;
30505;SDS011;17292;51.600;4.994;2023-05-27T12:06:42;4.00;;;3.00;;
30505;SDS011;17292;51.600;4.994;2023-05-27T12:09:09;7.35;;;3.05;;
30505;SDS011;17292;51.600;4.994;2023-05-27T12:11:36;4.18;;;2.85;;
30505;SDS011;17292;51.600;4.994;2023-05-27T12:14:02;3.85;;;2.47;;
30505;SDS011;17292;51.600;4.994;2023-05-27T12:16:28;5.72;;;3.00;;
30505;SDS011;17292;51.600;4.994;2023-05-27T12:18:54;6.28;;;3.13;;
30505;SDS011;17292;51.600;4.994;2023-05-27T12:21:21;3.63;;;2.50;;
30505;SDS011;17292;51.600;4.994;2023-05-27T12:23:47;4.47;;;2.78;;
30505;SDS011;17292;51.600;4.994;2023-05-27T12:26:14;4.15;;;2.65;;
30505;SDS011;17292;51.600;4.994;2023-05-27T12:28:41;5.15;;;3.10;;
30505;SDS011;17292;51.600;4.994;2023-05-27T12:31:07;4.53;;;2.65;;
30505;SDS011;17292;51.600;4.994;2023-05-27T12:33:33;5.78;;;2.95;;
30505;SDS011;17292;51.600;4.994;2023-05-27T12:36:00;3.90;;;2.58;;
30505;SDS011;17292;51.600;4.994;2023-05-27T12:38:26;5.97;;;3.08;;
30505;SDS011;17292;51.600;4.994;2023-05-27T12:40:53;3.55;;;2.65;;
30505;SDS011;17292;51.600;4.994;2023-05-27T12:43:21;3.85;;;2.95;;
30505;SDS011;17292;51.600;4.994;2023-05-27T12:45:48;5.15;;;2.70;;
30505;SDS011;17292;51.600;4.994;2023-05-27T12:48:14;5.30;;;2.72;;
30505;SDS011;17292;51.600;4.994;2023-05-27T12:50:40;7.15;;;3.08;;
30505;SDS011;17292;51.600;4.994;2023-05-27T12:53:10;4.30;;;3.00;;
30505;SDS011;17292;51.600;4.994;2023-05-27T12:55:36;4.30;;;2.63;;
30505;SDS011;17292;51.600;4.994;2023-05-27T12:58:03;6.35;;;3.20;;
30505;SDS011;17292;51.600;4.994;2023-05-27T13:00:29;5.82;;;3.03;;
30505;SDS011;17292;51.600;4.994;2023-05-27T13:02:59;3.42;;;2.60;;
30505;SDS011;17292;51.600;4.994;2023-05-27T13:05:25;5.60;;;2.88;;
30505;SDS011;17292;51.600;4.994;2023-05-27T13:07:53;4.97;;;2.97;;
30505;SDS011;17292;51.600;4.994;2023-05-27T13:10:20;5.10;;;2.65;;
30505;SDS011;17292;51.600;4.994;2023-05-27T13:12:47;4.57;;;2.90;;
30505;SDS011;17292;51.600;4.994;2023-05-27T13:15:13;4.05;;;2.72;;
30505;SDS011;17292;51.600;4.994;2023-05-27T13:17:41;7.32;;;3.10;;
30505;SDS011;17292;51.600;4.994;2023-05-27T13:20:08;4.70;;;3.17;;
30505;SDS011;17292;51.600;4.994;2023-05-27T13:22:34;5.07;;;2.90;;
30505;SDS011;17292;51.600;4.994;2023-05-27T13:25:00;4.85;;;3.08;;
30505;SDS011;17292;51.600;4.994;2023-05-27T13:27:26;4.70;;;3.38;;
30505;SDS011;17292;51.600;4.994;2023-05-27T13:29:53;4.60;;;2.88;;
30505;SDS011;17292;51.600;4.994;2023-05-27T13:32:19;4.45;;;2.90;;
30505;SDS011;17292;51.600;4.994;2023-05-27T13:34:45;3.47;;;2.65;;
30505;SDS011;17292;51.600;4.994;2023-05-27T13:37:11;6.45;;;3.28;;
30505;SDS011;17292;51.600;4.994;2023-05-27T13:39:37;5.22;;;2.88;;
30505;SDS011;17292;51.600;4.994;2023-05-27T13:42:08;6.00;;;2.97;;
30505;SDS011;17292;51.600;4.994;2023-05-27T13:44:35;5.70;;;3.08;;
30505;SDS011;17292;51.600;4.994;2023-05-27T13:47:01;4.38;;;2.72;;
30505;SDS011;17292;51.600;4.994;2023-05-27T13:49:27;4.88;;;3.10;;
30505;SDS011;17292;51.600;4.994;2023-05-27T13:51:53;4.53;;;2.88;;
30505;SDS011;17292;51.600;4.994;2023-05-27T13:54:20;3.13;;;2.70;;
30505;SDS011;17292;51.600;4.994;2023-05-27T13:56:46;4.85;;;2.90;;
30505;SDS011;17292;51.600;4.994;2023-05-27T13:59:14;3.10;;;2.60;;
30505;SDS011;17292;51.600;4.994;2023-05-27T14:01:40;4.55;;;3.10;;
30505;SDS011;17292;51.600;4.994;2023-05-27T14:04:06;3.85;;;3.00;;
30505;SDS011;17292;51.600;4.994;2023-05-27T14:06:33;3.88;;;2.90;;
30505;SDS011;17292;51.600;4.994;2023-05-27T14:09:00;3.78;;;2.55;;
30505;SDS011;17292;51.600;4.994;2023-05-27T14:11:26;3.47;;;2.50;;
30505;SDS011;17292;51.600;4.994;2023-05-27T14:13:53;3.90;;;2.78;;
30505;SDS011;17292;51.600;4.994;2023-05-27T14:16:22;4.40;;;2.90;;
30505;SDS011;17292;51.600;4.994;2023-05-27T14:18:48;5.75;;;2.80;;
30505;SDS011;17292;51.600;4.994;2023-05-27T14:21:15;7.70;;;2.97;;
30505;SDS011;17292;51.600;4.994;2023-05-27T14:23:41;4.07;;;2.80;;
30505;SDS011;17292;51.600;4.994;2023-05-27T14:26:08;3.90;;;2.92;;
30505;SDS011;17292;51.600;4.994;2023-05-27T14:28:34;5.05;;;2.95;;
30505;SDS011;17292;51.600;4.994;2023-05-27T14:31:00;3.90;;;2.72;;
30505;SDS011;17292;51.600;4.994;2023-05-27T14:33:26;5.03;;;3.20;;
30505;SDS011;17292;51.600;4.994;2023-05-27T14:35:52;7.78;;;2.85;;
30505;SDS011;17292;51.600;4.994;2023-05-27T14:38:18;4.85;;;3.05;;
30505;SDS011;17292;51.600;4.994;2023-05-27T14:40:46;4.75;;;2.95;;
30505;SDS011;17292;51.600;4.994;2023-05-27T14:43:12;4.90;;;2.80;;
30505;SDS011;17292;51.600;4.994;2023-05-27T14:45:40;3.78;;;2.90;;
30505;SDS011;17292;51.600;4.994;2023-05-27T14:48:06;5.60;;;3.20;;
30505;SDS011;17292;51.600;4.994;2023-05-27T14:50:33;3.55;;;2.72;;
30505;SDS011;17292;51.600;4.994;2023-05-27T14:52:59;4.88;;;2.75;;
30505;SDS011;17292;51.600;4.994;2023-05-27T14:55:25;2.92;;;2.60;;
30505;SDS011;17292;51.600;4.994;2023-05-27T14:57:51;5.72;;;3.05;;